createdAt,value
2019-04-30T00:00:48.314Z,93.51
2019-04-30T00:01:58.922Z,93.41
2019-04-30T00:02:48.338Z,93.6
2019-04-30T00:03:50.410Z,93.41
2019-04-30T00:04:48.372Z,93.7
2019-04-30T00:05:53.722Z,94.08
2019-04-30T00:06:48.161Z,94.08
2019-04-30T00:07:50.782Z,93.6
2019-04-30T00:09:53.869Z,94.56
2019-04-30T00:11:05.220Z,93.99
2019-04-30T00:11:55.734Z,94.18
2019-04-30T00:12:48.507Z,94.37
2019-04-30T00:13:55.212Z,94.46
2019-04-30T00:14:48.541Z,94.18
2019-04-30T00:15:58.483Z,94.46
2019-04-30T00:16:48.574Z,94.46
2019-04-30T00:17:58.407Z,94.56
2019-04-30T00:19:00.810Z,94.84
2019-04-30T00:19:55.637Z,94.74
2019-04-30T00:20:49.506Z,94.56
2019-04-30T00:22:00.007Z,94.65
2019-04-30T00:22:52.806Z,94.74
2019-04-30T00:23:48.692Z,94.56
2019-04-30T00:24:52.298Z,94.84
2019-04-30T00:25:48.517Z,94.84
2019-04-30T00:27:05.099Z,94.65
2019-04-30T00:27:50.579Z,94.56
2019-04-30T00:28:50.267Z,94.65
2019-04-30T00:29:48.793Z,94.84
2019-04-30T00:30:50.266Z,94.46
2019-04-30T00:31:49.582Z,94.74
2019-04-30T00:32:49.646Z,95.22
2019-04-30T00:33:52.631Z,95.22
2019-04-30T00:34:48.964Z,95.41
2019-04-30T00:35:57.914Z,95.41
2019-04-30T00:36:48.912Z,95.31
2019-04-30T00:37:57.308Z,95.12
2019-04-30T00:38:48.955Z,94.93
2019-04-30T00:39:55.383Z,95.12
2019-04-30T00:40:48.980Z,94.93
2019-04-30T00:41:49.970Z,95.41
2019-04-30T00:43:05.127Z,95.31
2019-04-30T00:43:53.035Z,94.93
2019-04-30T00:44:49.045Z,94.56
2019-04-30T00:45:50.016Z,94.84
2019-04-30T00:46:50.485Z,95.41
2019-04-30T00:47:50.382Z,94.93
2019-04-30T00:48:49.110Z,95.22
2019-04-30T00:49:52.036Z,95.03
2019-04-30T00:50:49.143Z,95.12
2019-04-30T00:51:54.040Z,95.03
2019-04-30T00:52:49.190Z,94.93
2019-04-30T00:53:55.753Z,95.12
2019-04-30T00:54:49.213Z,95.27
2019-04-30T00:55:50.949Z,95.07
2019-04-30T00:56:49.245Z,95.41
2019-04-30T00:58:05.771Z,95.36
2019-04-30T00:58:49.278Z,95.7
2019-04-30T00:59:50.471Z,95.36
2019-04-30T01:00:49.310Z,95.79
2019-04-30T01:02:49.345Z,95.6
2019-04-30T01:03:52.027Z,95.36
2019-04-30T01:04:49.386Z,95.51
2019-04-30T01:05:50.428Z,95.74
2019-04-30T01:06:49.425Z,95.27
2019-04-30T01:07:54.979Z,95.74
2019-04-30T01:08:49.451Z,95.74
2019-04-30T01:09:52.237Z,95.84
2019-04-30T01:11:50.585Z,95.84
2019-04-30T01:12:52.332Z,95.93
2019-04-30T01:13:55.784Z,95.65
2019-04-30T01:14:49.806Z,95.74
2019-04-30T01:15:53.719Z,96.22
2019-04-30T01:16:51.770Z,96.22
2019-04-30T01:17:54.939Z,96.03
2019-04-30T01:18:51.504Z,96.41
2019-04-30T01:19:55.923Z,96.97
2019-04-30T01:20:51.188Z,96.22
2019-04-30T01:21:51.546Z,96.41
2019-04-30T01:22:51.124Z,96.41
2019-04-30T01:23:55.383Z,96.12
2019-04-30T01:24:52.082Z,96.5
2019-04-30T01:25:53.668Z,96.69
2019-04-30T01:26:51.258Z,96.22
2019-04-30T01:27:51.486Z,96.41
2019-04-30T01:28:53.652Z,96.31
2019-04-30T01:30:04.453Z,96.31
2019-04-30T01:30:53.815Z,96.31
2019-04-30T01:31:51.258Z,96.88
2019-04-30T01:32:56.535Z,96.22
2019-04-30T01:33:51.374Z,96.88
2019-04-30T01:34:55.069Z,96.78
2019-04-30T01:35:51.227Z,96.88
2019-04-30T01:36:54.446Z,96.31
2019-04-30T01:37:51.245Z,96.31
2019-04-30T01:38:54.673Z,96.78
2019-04-30T01:39:51.668Z,97.07
2019-04-30T01:40:53.494Z,96.78
2019-04-30T01:41:51.234Z,96.78
2019-04-30T01:42:54.023Z,97.17
2019-04-30T01:43:51.175Z,97.17
2019-04-30T01:44:55.929Z,96.88
2019-04-30T01:46:09.162Z,97.07
2019-04-30T01:46:54.035Z,97.07
2019-04-30T01:47:52.039Z,97.17
2019-04-30T01:48:54.233Z,97.07
2019-04-30T01:49:55.772Z,97.17
2019-04-30T01:50:51.300Z,97.07
2019-04-30T01:51:52.804Z,97.17
2019-04-30T01:52:51.822Z,97.26
2019-04-30T01:53:51.018Z,97.26
2019-04-30T01:54:51.487Z,97.36
2019-04-30T01:55:51.902Z,97.26
2019-04-30T01:56:52.245Z,97.07
2019-04-30T01:57:51.581Z,97.26
2019-04-30T01:58:51.953Z,97.07
2019-04-30T01:59:51.044Z,96.97
2019-04-30T02:02:04.974Z,97.36
2019-04-30T02:02:51.975Z,97.07
2019-04-30T02:03:51.146Z,97.07
2019-04-30T02:04:51.633Z,97.07
2019-04-30T02:05:52.269Z,96.88
2019-04-30T02:06:51.787Z,96.97
2019-04-30T02:07:51.110Z,97.26
2019-04-30T02:08:51.816Z,97.36
2019-04-30T02:09:51.345Z,97.17
2019-04-30T02:10:53.590Z,96.69
2019-04-30T02:11:51.272Z,97.45
2019-04-30T02:12:51.782Z,97.55
2019-04-30T02:14:53.825Z,97.74
2019-04-30T02:15:51.702Z,97.74
2019-04-30T02:16:51.873Z,97.74
2019-04-30T02:18:05.233Z,97.92
2019-04-30T02:18:51.964Z,98.02
2019-04-30T02:20:52.213Z,97.92
2019-04-30T02:21:51.176Z,97.92
2019-04-30T02:22:51.099Z,98.02
2019-04-30T02:24:51.164Z,97.74
2019-04-30T02:25:51.481Z,97.74
2019-04-30T02:26:50.967Z,97.69
2019-04-30T02:27:51.372Z,98.35
2019-04-30T02:28:51.983Z,98.63
2019-04-30T02:29:51.930Z,98.87
2019-04-30T02:30:52.951Z,98.54
2019-04-30T02:31:52.910Z,98.87
2019-04-30T02:33:05.482Z,98.16
2019-04-30T02:33:52.795Z,98.25
2019-04-30T02:34:52.228Z,98.82
2019-04-30T02:35:52.593Z,98.92
2019-04-30T02:36:52.446Z,98.63
2019-04-30T02:37:52.964Z,98.92
2019-04-30T02:38:51.844Z,98.92
2019-04-30T02:39:52.758Z,98.92
2019-04-30T02:40:52.374Z,99.01
2019-04-30T02:41:53.127Z,98.82
2019-04-30T02:42:52.220Z,98.82
2019-04-30T02:43:52.254Z,98.92
2019-04-30T02:44:52.878Z,99.11
2019-04-30T02:45:52.383Z,98.92
2019-04-30T02:46:52.911Z,99.01
2019-04-30T02:47:52.455Z,98.73
2019-04-30T02:48:52.878Z,99.3
2019-04-30T02:50:11.232Z,98.92
2019-04-30T02:50:51.651Z,98.92
2019-04-30T02:51:52.451Z,98.92
2019-04-30T02:52:52.949Z,98.92
2019-04-30T02:53:52.980Z,98.73
2019-04-30T02:54:52.489Z,98.73
2019-04-30T02:55:52.370Z,98.82
2019-04-30T02:56:53.138Z,99.01
2019-04-30T02:57:52.383Z,98.73
2019-04-30T02:58:53.058Z,98.63
2019-04-30T02:59:52.123Z,98.92
2019-04-30T03:01:52.679Z,98.82
2019-04-30T03:02:53.069Z,99.3
2019-04-30T03:03:52.606Z,99.11
2019-04-30T03:05:05.986Z,99.58
2019-04-30T03:05:52.138Z,99.3
2019-04-30T03:06:52.830Z,99.3
2019-04-30T03:07:55.452Z,99.39
2019-04-30T03:08:53.721Z,99.3
2019-04-30T03:09:52.416Z,99.3
2019-04-30T03:10:55.058Z,99.2
2019-04-30T03:11:52.673Z,99.39
2019-04-30T03:12:52.486Z,99.3
2019-04-30T03:14:52.687Z,99.3
2019-04-30T03:15:51.881Z,99.87
2019-04-30T03:16:55.245Z,99.39
2019-04-30T03:17:53.139Z,99.99
2019-04-30T03:18:52.398Z,99.77
2019-04-30T03:19:52.651Z,99.77
2019-04-30T03:21:06.249Z,99.68
2019-04-30T03:21:52.691Z,99.87
2019-04-30T03:22:53.683Z,99.77
2019-04-30T03:26:52.449Z,99.99
2019-04-30T03:28:51.860Z,99.99
2019-04-30T03:29:52.772Z,99.99
2019-04-30T03:31:03.983Z,99.99
2019-04-30T03:31:54.984Z,99.99
2019-04-30T03:33:02.562Z,99.99
2019-04-30T03:33:54.908Z,99.99
2019-04-30T03:34:54.253Z,99.99
2019-04-30T03:36:00.858Z,99.99
2019-04-30T03:37:06.492Z,99.99
2019-04-30T03:37:52.165Z,99.99
2019-04-30T03:38:52.612Z,99.99
2019-04-30T03:39:51.916Z,99.99
2019-04-30T03:42:51.955Z,99.99
2019-04-30T03:43:52.848Z,99.99
2019-04-30T03:44:52.291Z,99.99
2019-04-30T03:45:52.524Z,99.99
2019-04-30T03:46:52.397Z,99.99
2019-04-30T03:47:53.028Z,99.99
2019-04-30T03:48:52.866Z,99.99
2019-04-30T03:49:52.556Z,99.99
2019-04-30T03:51:01.095Z,99.99
2019-04-30T03:51:52.477Z,99.99
2019-04-30T03:53:06.744Z,99.99
2019-04-30T03:53:52.702Z,99.99
2019-04-30T03:54:52.133Z,99.99
2019-04-30T03:55:53.061Z,99.99
2019-04-30T03:56:52.664Z,99.99
2019-04-30T03:57:54.384Z,99.99
2019-04-30T03:58:52.816Z,99.99
2019-04-30T03:59:52.535Z,99.99
2019-04-30T04:00:52.707Z,99.99
2019-04-30T04:01:52.418Z,99.99
2019-04-30T04:02:52.733Z,99.99
2019-04-30T04:03:52.312Z,99.99
2019-04-30T04:04:55.194Z,99.99
2019-04-30T04:05:52.343Z,99.87
2019-04-30T04:06:52.056Z,99.3
2019-04-30T04:08:09.410Z,99.99
2019-04-30T04:08:52.332Z,99.99
2019-04-30T04:09:52.485Z,99.99
2019-04-30T04:10:55.344Z,99.63
2019-04-30T04:11:53.390Z,99.63
2019-04-30T04:12:52.426Z,99.63
2019-04-30T04:14:53.441Z,99.87
2019-04-30T04:15:52.483Z,99.58
2019-04-30T04:16:53.391Z,99.63
2019-04-30T04:17:52.994Z,99.2
2019-04-30T04:18:52.736Z,99.3
2019-04-30T04:19:52.513Z,99.2
2019-04-30T04:21:11.240Z,99.49
2019-04-30T04:21:53.459Z,99.77
2019-04-30T04:22:52.551Z,99.3
2019-04-30T04:23:52.571Z,98.92
2019-04-30T04:24:53.172Z,98.82
2019-04-30T04:25:52.354Z,98.63
2019-04-30T04:26:53.019Z,98.92
2019-04-30T04:27:53.501Z,99.11
2019-04-30T04:28:52.661Z,99.2
2019-04-30T04:29:53.742Z,98.73
2019-04-30T04:30:53.283Z,98.73
2019-04-30T04:31:52.901Z,98.54
2019-04-30T04:32:52.758Z,98.63
2019-04-30T04:33:55.221Z,98.54
2019-04-30T04:34:53.363Z,98.82
2019-04-30T04:35:52.510Z,98.54
2019-04-30T04:36:53.318Z,98.16
2019-04-30T04:37:52.788Z,98.35
2019-04-30T04:38:53.073Z,97.78
2019-04-30T04:40:09.247Z,97.97
2019-04-30T04:40:52.910Z,97.78
2019-04-30T04:41:53.046Z,97.69
2019-04-30T04:42:52.868Z,97.4
2019-04-30T04:43:53.096Z,97.31
2019-04-30T04:44:53.008Z,97.12
2019-04-30T04:46:53.232Z,96.08
2019-04-30T04:47:53.166Z,96.17
2019-04-30T04:48:52.964Z,95.93
2019-04-30T04:49:56.197Z,94.32
2019-04-30T04:50:52.749Z,92.66
2019-04-30T04:51:52.765Z,90.42
2019-04-30T04:52:52.786Z,87.24
2019-04-30T04:53:52.804Z,85.95
2019-04-30T04:54:53.341Z,82.95
2019-04-30T04:56:09.860Z,80.42
2019-04-30T04:57:13.129Z,79.38
2019-04-30T04:57:53.136Z,79.38
2019-04-30T04:58:52.905Z,77.61
2019-04-30T04:59:53.165Z,76.08
2019-04-30T05:00:52.945Z,74.4
2019-04-30T05:01:52.965Z,73.49
2019-04-30T05:02:53.080Z,72.92
2019-04-30T05:03:53.253Z,71.43
2019-04-30T05:04:53.276Z,70.76
2019-04-30T05:05:53.050Z,70.47
2019-04-30T05:06:53.084Z,69.9
2019-04-30T05:07:53.092Z,69.33
2019-04-30T05:08:53.363Z,68.12
2019-04-30T05:09:53.386Z,68.03
2019-04-30T05:10:53.163Z,67.55
2019-04-30T05:12:08.512Z,65.77
2019-04-30T05:12:53.561Z,64.56
2019-04-30T05:13:53.482Z,66.15
2019-04-30T05:14:53.506Z,67.04
2019-04-30T05:15:54.027Z,65.96
2019-04-30T05:16:53.559Z,65.1
2019-04-30T05:17:53.331Z,64.91
2019-04-30T05:18:53.604Z,66.15
2019-04-30T05:19:53.639Z,65.58
2019-04-30T05:20:53.655Z,65.48
2019-04-30T05:21:54.157Z,64.75
2019-04-30T05:22:53.703Z,63.6
2019-04-30T05:23:53.829Z,62.75
2019-04-30T05:24:53.506Z,60.42
2019-04-30T05:25:53.814Z,59.23
2019-04-30T05:26:53.805Z,57.83
2019-04-30T05:28:08.742Z,58.83
2019-04-30T05:28:55.398Z,58.18
2019-04-30T05:29:53.883Z,57.26
2019-04-30T05:30:53.910Z,56.04
2019-04-30T05:31:53.939Z,55.73
2019-04-30T05:32:53.713Z,56.04
2019-04-30T05:33:53.743Z,55.44
2019-04-30T05:34:54.017Z,54.24
2019-04-30T05:35:54.042Z,53.67
2019-04-30T05:36:54.071Z,53.5
2019-04-30T05:37:54.096Z,54.67
2019-04-30T05:38:54.123Z,56.37
2019-04-30T05:40:53.928Z,57.1
2019-04-30T05:41:53.957Z,58.44
2019-04-30T05:43:11.223Z,61.22
2019-04-30T05:43:54.266Z,62.97
2019-04-30T05:44:54.287Z,63.26
2019-04-30T05:45:54.337Z,62.27
2019-04-30T05:46:54.344Z,61.35
2019-04-30T05:47:54.373Z,62.27
2019-04-30T05:48:54.398Z,62.15
2019-04-30T05:49:54.427Z,62.65
2019-04-30T05:50:56.180Z,63.1
2019-04-30T05:51:59.337Z,61.82
2019-04-30T05:52:54.509Z,60.52
2019-04-30T05:55:54.592Z,60.04
2019-04-30T05:56:54.624Z,60.87
2019-04-30T05:58:01.380Z,59.47
2019-04-30T05:58:54.678Z,60.23
2019-04-30T05:59:54.705Z,63.39
2019-04-30T06:00:54.486Z,65.26
2019-04-30T06:01:54.763Z,65.99
2019-04-30T06:02:54.791Z,65.1
2019-04-30T06:03:54.828Z,64.53
2019-04-30T06:04:54.847Z,64.34
2019-04-30T06:05:54.631Z,62.87
2019-04-30T06:06:54.903Z,59.88
2019-04-30T06:07:55.461Z,59.49
2019-04-30T06:09:04.562Z,59.3
2019-04-30T06:09:54.992Z,59.37
2019-04-30T06:10:54.769Z,59.94
2019-04-30T06:11:55.048Z,59.94
2019-04-30T06:15:11.707Z,59.69
2019-04-30T06:15:55.161Z,58.66
2019-04-30T06:16:55.042Z,58.09
2019-04-30T06:18:11.403Z,58.15
2019-04-30T06:18:55.247Z,57.13
2019-04-30T06:19:55.278Z,56.59
2019-04-30T06:20:55.308Z,56.49
2019-04-30T06:22:10.695Z,57.29
2019-04-30T06:22:55.368Z,57.77
2019-04-30T06:23:55.395Z,58.8
2019-04-30T06:24:55.431Z,57.61
2019-04-30T06:26:55.488Z,54.91
2019-04-30T06:27:55.540Z,53.5
2019-04-30T06:29:55.573Z,51.51
2019-04-30T06:31:10.270Z,53.83
2019-04-30T06:31:55.637Z,54.45
2019-04-30T06:32:55.683Z,55.6
2019-04-30T06:33:55.694Z,57.55
2019-04-30T06:34:55.725Z,58.22
2019-04-30T06:35:55.752Z,57.2
2019-04-30T06:36:59.561Z,55.88
2019-04-30T06:37:55.816Z,55.88
2019-04-30T06:38:55.842Z,55.6
2019-04-30T06:39:55.876Z,55.79
2019-04-30T06:40:55.654Z,54.5
2019-04-30T06:42:12.103Z,51.87
2019-04-30T06:42:55.966Z,51.3
2019-04-30T06:43:55.993Z,50.53
2019-04-30T06:44:56.024Z,50.53
2019-04-30T06:45:56.053Z,50.05
2019-04-30T06:47:10.751Z,51.85
2019-04-30T06:47:56.113Z,53.14
2019-04-30T06:48:56.145Z,53.88
2019-04-30T06:49:56.175Z,53.42
2019-04-30T06:50:56.208Z,52.28
2019-04-30T06:51:56.236Z,51.44
2019-04-30T06:53:01.559Z,50.41
2019-04-30T06:53:56.297Z,50.41
2019-04-30T06:54:56.327Z,50.24
2019-04-30T06:56:56.388Z,50.38
2019-04-30T06:57:56.423Z,50.77
2019-04-30T06:58:56.449Z,50.96
2019-04-30T06:59:56.480Z,50.03
2019-04-30T07:00:56.514Z,49.57
2019-04-30T07:01:56.548Z,48.28
2019-04-30T07:03:11.238Z,46.48
2019-04-30T07:04:00.981Z,47.2
2019-04-30T07:04:58.638Z,47.87
2019-04-30T07:05:58.467Z,48.52
2019-04-30T07:06:56.699Z,50.84
2019-04-30T07:08:09.737Z,51.42
2019-04-30T07:08:59.665Z,51.51
2019-04-30T07:10:01.325Z,50.1
2019-04-30T07:11:07.366Z,49.65
2019-04-30T07:11:56.989Z,48.8
2019-04-30T07:12:58.721Z,48.71
2019-04-30T07:13:56.928Z,48.52
2019-04-30T07:15:58.519Z,48.61
2019-04-30T07:16:57.002Z,48.88
2019-04-30T07:18:11.700Z,49
2019-04-30T07:18:58.590Z,49.91
2019-04-30T07:19:59.752Z,50.29
2019-04-30T07:20:58.704Z,48.61
2019-04-30T07:23:04.756Z,50
2019-04-30T07:23:57.221Z,50.36
2019-04-30T07:24:59.396Z,51.03
2019-04-30T07:25:58.966Z,51.29
2019-04-30T07:27:03.866Z,50.65
2019-04-30T07:27:59.316Z,51.32
2019-04-30T07:28:59.784Z,51.32
2019-04-30T07:31:11.231Z,53.25
2019-04-30T07:31:59.115Z,53.16
2019-04-30T07:32:59.371Z,53.34
2019-04-30T07:33:59.250Z,53.18
2019-04-30T07:34:59.226Z,52.54
2019-04-30T07:36:01.424Z,51.39
2019-04-30T07:39:58.858Z,51.87
2019-04-30T07:40:58.820Z,51.13
2019-04-30T07:41:59.785Z,51.22
2019-04-30T07:42:58.903Z,50.38
2019-04-30T07:43:58.782Z,50.48
2019-04-30T07:44:57.285Z,50.58
2019-04-30T07:45:59.681Z,49.52
2019-04-30T07:46:59.341Z,49.81
2019-04-30T07:50:00.622Z,45.98
2019-04-30T07:50:59.185Z,45.71
2019-04-30T07:52:00.999Z,44.96
2019-04-30T07:53:10.313Z,44.38
2019-04-30T07:53:58.993Z,46.05
2019-04-30T07:55:00.459Z,46.5
2019-04-30T07:55:58.774Z,46.05
2019-04-30T07:56:59.942Z,45.4
2019-04-30T07:57:59.108Z,44.17
2019-04-30T07:59:00.662Z,43.71
2019-04-30T07:59:59.682Z,44.73
2019-04-30T08:02:59.833Z,44.46
2019-04-30T08:03:14.306Z,44.56
2019-04-30T08:04:13.371Z,43.79
2019-04-30T08:05:13.389Z,43.14
2019-04-30T08:06:13.601Z,42.12
2019-04-30T08:07:13.552Z,41.06
2019-04-30T08:08:25.600Z,43.4
2019-04-30T08:09:13.513Z,44.13
2019-04-30T08:10:13.539Z,44.15
2019-04-30T08:11:26.390Z,41.99
2019-04-30T08:12:25.490Z,42.3
2019-04-30T08:13:31.683Z,42.27
2019-04-30T08:14:13.669Z,42
2019-04-30T08:15:13.700Z,42.32
2019-04-30T08:16:13.719Z,41.91
2019-04-30T08:17:13.749Z,41.16
2019-04-30T08:18:13.777Z,40.76
2019-04-30T08:19:13.808Z,40.78
2019-04-30T08:20:15.846Z,41.05
2019-04-30T08:21:13.868Z,40.93
2019-04-30T08:22:13.897Z,41.5
2019-04-30T08:23:33.797Z,41.41
2019-04-30T08:24:13.957Z,41.39
2019-04-30T08:27:14.046Z,42.13
2019-04-30T08:28:14.075Z,42.43
2019-04-30T08:29:29.450Z,42.08
2019-04-30T08:30:27.055Z,41.55
2019-04-30T08:31:15.591Z,40.03
2019-04-30T08:32:14.195Z,39.83
2019-04-30T08:33:14.225Z,40.03
2019-04-30T08:34:14.262Z,39.72
2019-04-30T08:35:14.284Z,39.36
2019-04-30T08:36:14.316Z,38.62
2019-04-30T08:37:20.331Z,38.14
2019-04-30T08:38:14.370Z,38.85
2019-04-30T08:39:14.400Z,38.93
2019-04-30T08:40:14.460Z,38.76
2019-04-30T08:42:14.488Z,38.76
2019-04-30T08:43:14.518Z,37.99
2019-04-30T08:44:14.546Z,38.09
2019-04-30T08:45:30.932Z,38.62
2019-04-30T08:46:14.605Z,38.81
2019-04-30T08:48:14.664Z,39.47
2019-04-30T08:49:15.278Z,40.05
2019-04-30T08:50:14.939Z,39.56
2019-04-30T08:51:16.515Z,38.53
2019-04-30T08:52:14.856Z,38.34
2019-04-30T08:53:26.418Z,38.34
2019-04-30T08:54:14.927Z,38.26
2019-04-30T08:55:22.198Z,37.6
2019-04-30T08:56:14.900Z,38.45
2019-04-30T08:58:20.448Z,38.09
2019-04-30T08:59:14.982Z,37.99
2019-04-30T09:00:29.857Z,37.22
2019-04-30T09:01:15.139Z,36.76
2019-04-30T09:02:19.681Z,35.99
2019-04-30T09:03:15.123Z,36.18
2019-04-30T09:04:15.125Z,35.89
2019-04-30T09:05:15.157Z,35.41
2019-04-30T09:06:15.183Z,35.02
2019-04-30T09:07:15.211Z,34.66
2019-04-30T09:08:15.240Z,35.6
2019-04-30T09:09:15.267Z,35.95
2019-04-30T09:10:15.306Z,36.22
2019-04-30T09:11:31.959Z,36.6
2019-04-30T09:12:15.356Z,36.91
2019-04-30T09:13:15.392Z,37.1
2019-04-30T09:14:15.411Z,36.62
2019-04-30T09:15:15.439Z,36.53
2019-04-30T09:16:15.466Z,36.24
2019-04-30T09:17:15.495Z,36.15
2019-04-30T09:18:15.520Z,35.77
2019-04-30T09:19:15.554Z,35.58
2019-04-30T09:20:15.579Z,35.3
2019-04-30T09:21:15.606Z,35.38
2019-04-30T09:22:19.447Z,35.18
2019-04-30T09:23:15.664Z,35.74
2019-04-30T09:24:15.442Z,35.83
2019-04-30T09:25:15.717Z,35.38
2019-04-30T09:26:15.747Z,35.66
2019-04-30T09:27:15.772Z,35.49
2019-04-30T09:28:15.799Z,35
2019-04-30T09:30:15.861Z,35.18
2019-04-30T09:31:15.884Z,35.97
2019-04-30T09:32:30.576Z,35.49
2019-04-30T09:33:15.938Z,35.24
2019-04-30T09:34:20.942Z,33.33
2019-04-30T09:35:15.997Z,32.36
2019-04-30T09:36:16.022Z,32.46
2019-04-30T09:37:16.048Z,32.46
2019-04-30T09:38:16.075Z,32.25
2019-04-30T09:40:21.239Z,31.9
2019-04-30T09:41:16.158Z,31.22
2019-04-30T09:42:16.183Z,32.14
2019-04-30T09:43:16.227Z,32.33
2019-04-30T09:45:16.267Z,32.7
2019-04-30T09:46:27.115Z,33.39
2019-04-30T09:47:16.322Z,32.15
2019-04-30T09:48:31.015Z,31.09
2019-04-30T09:49:16.389Z,31.09
2019-04-30T09:50:16.402Z,31.11
2019-04-30T09:51:17.807Z,31.49
2019-04-30T09:52:18.680Z,30.63
2019-04-30T09:53:16.564Z,32.09
2019-04-30T09:54:19.415Z,30.85
2019-04-30T09:55:16.541Z,30.85
2019-04-30T09:56:16.567Z,30.27
2019-04-30T09:57:16.595Z,30.56
2019-04-30T09:58:21.198Z,30.18
2019-04-30T09:59:16.649Z,30.15
2019-04-30T10:00:16.677Z,31.56
2019-04-30T10:01:16.703Z,32.62
2019-04-30T10:02:18.903Z,32.73
2019-04-30T10:03:19.818Z,31.4
2019-04-30T10:04:31.822Z,31.51
2019-04-30T10:05:19.964Z,31.51
2019-04-30T10:06:18.468Z,31.6
2019-04-30T10:07:16.862Z,31.52
2019-04-30T10:08:18.844Z,29.98
2019-04-30T10:09:16.917Z,29.98
2019-04-30T10:10:18.701Z,30.26
2019-04-30T10:11:16.975Z,30.55
2019-04-30T10:12:16.997Z,31.48
2019-04-30T10:13:17.033Z,31.51
2019-04-30T10:14:17.053Z,32.26
2019-04-30T10:15:18.771Z,32.06
2019-04-30T10:17:17.130Z,32.18
2019-04-30T10:18:17.158Z,31.78
2019-04-30T10:19:19.040Z,31.87
2019-04-30T10:20:31.877Z,34.56
2019-04-30T10:21:18.895Z,33.89
2019-04-30T10:22:17.264Z,32.56
2019-04-30T10:23:19.255Z,32.56
2019-04-30T10:25:17.350Z,33.12
2019-04-30T10:26:17.369Z,32.82
2019-04-30T10:27:19.054Z,33.29
2019-04-30T10:28:19.410Z,33.39
2019-04-30T10:29:17.477Z,33.28
2019-04-30T10:30:19.211Z,33.58
2019-04-30T10:31:18.694Z,33.77
2019-04-30T10:32:18.678Z,33.77
2019-04-30T10:33:19.446Z,34.23
2019-04-30T10:34:17.583Z,34.41
2019-04-30T10:35:32.273Z,34.61
2019-04-30T10:36:18.938Z,34.61
2019-04-30T10:37:18.881Z,34.89
2019-04-30T10:38:19.470Z,34.89
2019-04-30T10:39:19.176Z,35.93
2019-04-30T10:40:19.942Z,35.47
2019-04-30T10:41:18.769Z,35.26
2019-04-30T10:42:17.794Z,35.66
2019-04-30T10:43:19.656Z,34.22
2019-04-30T10:44:18.775Z,34.2
2019-04-30T10:45:18.568Z,34.88
2019-04-30T10:46:17.893Z,34.76
2019-04-30T10:47:19.251Z,35.53
2019-04-30T10:48:17.947Z,35.82
2019-04-30T10:49:19.147Z,36.3
2019-04-30T10:50:17.996Z,36.3
2019-04-30T10:51:18.895Z,35.91
2019-04-30T10:52:19.205Z,35.43
2019-04-30T10:53:18.070Z,35.63
2019-04-30T10:54:28.929Z,35.72
2019-04-30T10:55:18.123Z,35.61
2019-04-30T10:56:19.271Z,35.89
2019-04-30T10:57:18.485Z,35.89
2019-04-30T10:58:18.197Z,35.03
2019-04-30T10:59:18.223Z,35.69
2019-04-30T11:03:23.301Z,36.57
2019-04-30T11:04:18.348Z,36.18
2019-04-30T11:05:18.751Z,35.89
2019-04-30T11:06:19.155Z,35.99
2019-04-30T11:07:33.085Z,36.68
2019-04-30T11:08:18.444Z,38.22
2019-04-30T11:09:18.468Z,39.2
2019-04-30T11:10:18.945Z,36.24
2019-04-30T11:11:18.517Z,35.95
2019-04-30T11:12:19.326Z,35.16
2019-04-30T11:13:18.570Z,35.91
2019-04-30T11:14:18.595Z,35.91
2019-04-30T11:15:20.480Z,35.72
2019-04-30T11:16:18.906Z,35.71
2019-04-30T11:17:19.658Z,36.09
2019-04-30T11:18:19.078Z,37.15
2019-04-30T11:19:19.384Z,36.58
2019-04-30T11:20:21.676Z,36.49
2019-04-30T11:21:19.636Z,35.91
2019-04-30T11:22:19.181Z,37.35
2019-04-30T11:23:33.581Z,36.41
2019-04-30T11:24:19.625Z,35.55
2019-04-30T11:25:19.771Z,36.32
2019-04-30T11:26:20.031Z,35.93
2019-04-30T11:27:20.523Z,36.32
2019-04-30T11:28:20.061Z,36.32
2019-04-30T11:30:26.236Z,36.3
2019-04-30T11:32:19.666Z,37.66
2019-04-30T11:33:19.412Z,36.7
2019-04-30T11:35:22.945Z,36.18
2019-04-30T11:37:19.149Z,38.12
2019-04-30T11:38:20.503Z,37.64
2019-04-30T11:39:33.863Z,37.16
2019-04-30T11:40:30.751Z,36.6
2019-04-30T11:41:33.227Z,36.97
2019-04-30T11:42:19.271Z,36.6
2019-04-30T11:43:20.910Z,36.97
2019-04-30T11:44:32.699Z,38.14
2019-04-30T11:45:19.499Z,36.7
2019-04-30T11:46:21.131Z,37.08
2019-04-30T11:47:19.488Z,36.41
2019-04-30T11:48:21.482Z,36.6
2019-04-30T11:49:19.439Z,36.8
2019-04-30T11:50:19.463Z,36.51
2019-04-30T11:51:21.773Z,36.32
2019-04-30T11:52:19.525Z,37.07
2019-04-30T11:53:30.680Z,36.13
2019-04-30T11:54:21.151Z,37.08
2019-04-30T11:55:34.250Z,36.32
2019-04-30T11:56:19.611Z,36.41
2019-04-30T11:57:21.168Z,36.24
2019-04-30T11:58:24.325Z,35.93
2019-04-30T11:59:19.678Z,36.32
2019-04-30T12:00:21.207Z,35.74
2019-04-30T12:01:21.854Z,36.32
2019-04-30T12:02:21.758Z,36.58
2019-04-30T12:03:21.637Z,37.35
2019-04-30T12:04:21.823Z,36.41
2019-04-30T12:05:23.113Z,36.03
2019-04-30T12:06:20.920Z,36.3
2019-04-30T12:07:19.971Z,37.26
2019-04-30T12:08:21.807Z,36.11
2019-04-30T12:09:22.428Z,35.34
2019-04-30T12:10:34.609Z,35.24
2019-04-30T12:11:20.170Z,35.82
2019-04-30T12:12:21.389Z,35.91
2019-04-30T12:13:20.014Z,36.18
2019-04-30T12:14:20.877Z,36.2
2019-04-30T12:15:21.665Z,36.3
2019-04-30T12:16:21.053Z,36.18
2019-04-30T12:17:20.111Z,36.68
2019-04-30T12:18:20.138Z,36.4
2019-04-30T12:19:21.340Z,36.4
2019-04-30T12:20:22.057Z,36.58
2019-04-30T12:21:20.206Z,36.2
2019-04-30T12:22:22.588Z,36.58
2019-04-30T12:23:21.415Z,36.58
2019-04-30T12:24:20.276Z,36.4
2019-04-30T12:25:21.122Z,36.95
2019-04-30T12:26:21.498Z,37.16
2019-04-30T12:27:21.134Z,36.58
2019-04-30T12:28:21.985Z,36.13
2019-04-30T12:29:21.559Z,36.01
2019-04-30T12:30:23.060Z,35.36
2019-04-30T12:31:21.127Z,35.74
2019-04-30T12:32:23.498Z,35.91
2019-04-30T12:33:21.609Z,36.01
2019-04-30T12:34:20.518Z,36.22
2019-04-30T12:35:20.539Z,36.99
2019-04-30T12:36:21.330Z,37.27
2019-04-30T12:37:21.530Z,36.53
2019-04-30T12:38:21.669Z,36.24
2019-04-30T12:39:20.635Z,35.85
2019-04-30T12:40:32.295Z,35.95
2019-04-30T12:41:20.687Z,36.03
2019-04-30T12:42:35.370Z,35.93
2019-04-30T12:43:20.729Z,35.93
2019-04-30T12:44:20.757Z,36.22
2019-04-30T12:45:21.880Z,36.22
2019-04-30T12:46:23.520Z,36.32
2019-04-30T12:47:23.933Z,36.22
2019-04-30T12:48:22.702Z,37.47
2019-04-30T12:49:21.474Z,37.66
2019-04-30T12:50:21.942Z,35.66
2019-04-30T12:51:20.919Z,36.05
2019-04-30T12:52:22.013Z,36.53
2019-04-30T12:53:20.971Z,36.33
2019-04-30T12:55:22.743Z,36.45
2019-04-30T12:56:29.253Z,36.91
2019-04-30T12:57:21.638Z,37.12
2019-04-30T12:58:35.752Z,36.45
2019-04-30T12:59:21.113Z,36.45
2019-04-30T13:00:21.970Z,36.35
2019-04-30T13:01:21.157Z,36.43
2019-04-30T13:02:21.605Z,36.43
2019-04-30T13:03:21.206Z,36.64
2019-04-30T13:04:21.808Z,36.64
2019-04-30T13:05:21.332Z,37.2
2019-04-30T13:06:22.666Z,37.22
2019-04-30T13:07:23.833Z,36.45
2019-04-30T13:08:24.425Z,36.25
2019-04-30T13:09:23.165Z,36.13
2019-04-30T13:10:22.376Z,36.97
2019-04-30T13:11:24.489Z,38.22
2019-04-30T13:12:22.587Z,38.32
2019-04-30T13:13:22.676Z,37.57
2019-04-30T13:14:48.834Z,38.43
2019-04-30T13:15:21.499Z,38.54
2019-04-30T13:16:21.834Z,37.59
2019-04-30T13:17:21.540Z,36.43
2019-04-30T13:18:21.923Z,37.39
2019-04-30T13:19:21.587Z,37.2
2019-04-30T13:20:26.398Z,36.62
2019-04-30T13:21:21.635Z,36.82
2019-04-30T13:22:21.660Z,36.53
2019-04-30T13:23:21.685Z,36.33
2019-04-30T13:24:21.788Z,35.76
2019-04-30T13:25:35.612Z,35.95
2019-04-30T13:26:21.754Z,35.87
2019-04-30T13:27:24.834Z,35.47
2019-04-30T13:28:21.802Z,36.05
2019-04-30T13:29:21.825Z,35.08
2019-04-30T13:30:36.515Z,35.28
2019-04-30T13:31:21.876Z,35.76
2019-04-30T13:32:32.911Z,36.15
2019-04-30T13:33:22.902Z,35.85
2019-04-30T13:34:22.041Z,35.57
2019-04-30T13:35:21.970Z,35.39
2019-04-30T13:36:22.267Z,35.2
2019-04-30T13:37:22.016Z,34.33
2019-04-30T13:38:22.041Z,34.51
2019-04-30T13:39:22.064Z,34.41
2019-04-30T13:40:22.700Z,35.38
2019-04-30T13:41:22.116Z,35.1
2019-04-30T13:42:23.074Z,34.43
2019-04-30T13:43:22.161Z,34.23
2019-04-30T13:44:22.186Z,34.53
2019-04-30T13:45:38.646Z,34.43
2019-04-30T13:46:22.231Z,34.33
2019-04-30T13:47:22.259Z,34.7
2019-04-30T13:48:22.035Z,34.41